sensor_id;sensor_type;location;lat;lon;timestamp;pressure;altitude;pressure_sealevel;temperature
11424;BMP180;5768;51.476;7.210;2023-02-13T00:03:30;102365.00;;;13.20
11424;BMP180;5768;51.476;7.210;2023-02-13T00:08:33;102361.00;;;13.20
11424;BMP180;5768;51.476;7.210;2023-02-13T00:13:35;102361.00;;;13.20
11424;BMP180;5768;51.476;7.210;2023-02-13T00:18:38;102351.00;;;13.10
11424;BMP180;5768;51.476;7.210;2023-02-13T00:23:40;102349.00;;;13.10
11424;BMP180;5768;51.476;7.210;2023-02-13T00:28:43;102341.00;;;13.10
11424;BMP180;5768;51.476;7.210;2023-02-13T00:33:47;102336.00;;;13.10
11424;BMP180;5768;51.476;7.210;2023-02-13T00:38:49;102336.00;;;13.10
11424;BMP180;5768;51.476;7.210;2023-02-13T00:43:51;102342.00;;;13.10
11424;BMP180;5768;51.476;7.210;2023-02-13T00:48:55;102340.00;;;13.10
11424;BMP180;5768;51.476;7.210;2023-02-13T00:53:57;102338.00;;;13.10
11424;BMP180;5768;51.476;7.210;2023-02-13T00:58:59;102345.00;;;13.10
11424;BMP180;5768;51.476;7.210;2023-02-13T01:04:02;102333.00;;;13.10
11424;BMP180;5768;51.476;7.210;2023-02-13T01:09:04;102334.00;;;13.10
11424;BMP180;5768;51.476;7.210;2023-02-13T01:14:06;102337.00;;;13.10
11424;BMP180;5768;51.476;7.210;2023-02-13T01:19:10;102343.00;;;13.10
11424;BMP180;5768;51.476;7.210;2023-02-13T01:24:12;102330.00;;;13.20
11424;BMP180;5768;51.476;7.210;2023-02-13T01:29:14;102337.00;;;13.20
11424;BMP180;5768;51.476;7.210;2023-02-13T01:34:17;102343.00;;;13.10
11424;BMP180;5768;51.476;7.210;2023-02-13T01:39:20;102338.00;;;13.10
11424;BMP180;5768;51.476;7.210;2023-02-13T01:44:49;102339.00;;;13.10
11424;BMP180;5768;51.476;7.210;2023-02-13T01:50:05;102332.00;;;13.10
11424;BMP180;5768;51.476;7.210;2023-02-13T01:55:10;102334.00;;;13.10
11424;BMP180;5768;51.476;7.210;2023-02-13T02:00:15;102333.00;;;13.00
11424;BMP180;5768;51.476;7.210;2023-02-13T02:05:21;102328.00;;;13.00
11424;BMP180;5768;51.476;7.210;2023-02-13T02:10:24;102324.00;;;13.00
11424;BMP180;5768;51.476;7.210;2023-02-13T02:15:26;102318.00;;;13.00
11424;BMP180;5768;51.476;7.210;2023-02-13T02:21:00;102317.00;;;12.90
11424;BMP180;5768;51.476;7.210;2023-02-13T02:26:58;102324.00;;;12.90
11424;BMP180;5768;51.476;7.210;2023-02-13T02:32:25;102319.00;;;12.80
11424;BMP180;5768;51.476;7.210;2023-02-13T02:38:01;102311.00;;;12.80
11424;BMP180;5768;51.476;7.210;2023-02-13T02:43:22;102316.00;;;12.80
11424;BMP180;5768;51.476;7.210;2023-02-13T02:48:32;102318.00;;;12.80
11424;BMP180;5768;51.476;7.210;2023-02-13T02:54:06;102313.00;;;12.80
11424;BMP180;5768;51.476;7.210;2023-02-13T02:59:31;102306.00;;;12.80
11424;BMP180;5768;51.476;7.210;2023-02-13T03:04:55;102312.00;;;12.70
11424;BMP180;5768;51.476;7.210;2023-02-13T03:10:26;102312.00;;;12.70
11424;BMP180;5768;51.476;7.210;2023-02-13T03:16:02;102316.00;;;12.60
11424;BMP180;5768;51.476;7.210;2023-02-13T03:21:44;102313.00;;;12.60
11424;BMP180;5768;51.476;7.210;2023-02-13T03:27:12;102307.00;;;12.60
11424;BMP180;5768;51.476;7.210;2023-02-13T03:32:25;102317.00;;;12.60
11424;BMP180;5768;51.476;7.210;2023-02-13T03:37:35;102314.00;;;12.50
11424;BMP180;5768;51.476;7.210;2023-02-13T03:43:07;102315.00;;;12.50
11424;BMP180;5768;51.476;7.210;2023-02-13T03:48:13;102327.00;;;12.60
11424;BMP180;5768;51.476;7.210;2023-02-13T03:53:34;102333.00;;;12.40
11424;BMP180;5768;51.476;7.210;2023-02-13T03:58:43;102338.00;;;12.40
11424;BMP180;5768;51.476;7.210;2023-02-13T04:04:10;102338.00;;;12.40
11424;BMP180;5768;51.476;7.210;2023-02-13T04:09:14;102341.00;;;12.40
11424;BMP180;5768;51.476;7.210;2023-02-13T04:14:22;102334.00;;;12.40
11424;BMP180;5768;51.476;7.210;2023-02-13T04:19:26;102339.00;;;12.40
11424;BMP180;5768;51.476;7.210;2023-02-13T04:24:30;102325.00;;;12.30
11424;BMP180;5768;51.476;7.210;2023-02-13T04:29:32;102320.00;;;12.30
11424;BMP180;5768;51.476;7.210;2023-02-13T04:34:34;102321.00;;;12.30
11424;BMP180;5768;51.476;7.210;2023-02-13T04:39:38;102329.00;;;12.30
11424;BMP180;5768;51.476;7.210;2023-02-13T04:44:40;102326.00;;;12.30
11424;BMP180;5768;51.476;7.210;2023-02-13T04:49:42;102323.00;;;12.30
11424;BMP180;5768;51.476;7.210;2023-02-13T04:54:45;102323.00;;;12.30
11424;BMP180;5768;51.476;7.210;2023-02-13T04:59:47;102317.00;;;12.30
11424;BMP180;5768;51.476;7.210;2023-02-13T05:04:49;102316.00;;;12.40
11424;BMP180;5768;51.476;7.210;2023-02-13T05:09:53;102313.00;;;12.40
11424;BMP180;5768;51.476;7.210;2023-02-13T05:14:55;102313.00;;;12.40
11424;BMP180;5768;51.476;7.210;2023-02-13T05:19:57;102315.00;;;12.40
11424;BMP180;5768;51.476;7.210;2023-02-13T05:25:01;102306.00;;;12.30
11424;BMP180;5768;51.476;7.210;2023-02-13T05:30:04;102302.00;;;12.30
11424;BMP180;5768;51.476;7.210;2023-02-13T05:35:07;102309.00;;;12.20
11424;BMP180;5768;51.476;7.210;2023-02-13T05:40:12;102303.00;;;12.20
11424;BMP180;5768;51.476;7.210;2023-02-13T05:45:15;102297.00;;;12.20
11424;BMP180;5768;51.476;7.210;2023-02-13T05:50:17;102297.00;;;12.30
11424;BMP180;5768;51.476;7.210;2023-02-13T05:55:20;102302.00;;;12.20
11424;BMP180;5768;51.476;7.210;2023-02-13T06:00:23;102304.00;;;12.20
11424;BMP180;5768;51.476;7.210;2023-02-13T06:05:25;102304.00;;;12.20
11424;BMP180;5768;51.476;7.210;2023-02-13T06:10:29;102304.00;;;12.10
11424;BMP180;5768;51.476;7.210;2023-02-13T06:15:31;102294.00;;;11.90
11424;BMP180;5768;51.476;7.210;2023-02-13T06:20:34;102303.00;;;11.60
11424;BMP180;5768;51.476;7.210;2023-02-13T06:25:38;102300.00;;;11.40
11424;BMP180;5768;51.476;7.210;2023-02-13T06:30:40;102291.00;;;11.10
11424;BMP180;5768;51.476;7.210;2023-02-13T06:35:42;102296.00;;;10.80
11424;BMP180;5768;51.476;7.210;2023-02-13T06:40:49;102284.00;;;10.60
11424;BMP180;5768;51.476;7.210;2023-02-13T06:45:51;102289.00;;;10.50
11424;BMP180;5768;51.476;7.210;2023-02-13T06:50:53;102284.00;;;10.40
11424;BMP180;5768;51.476;7.210;2023-02-13T06:55:57;102285.00;;;10.30
11424;BMP180;5768;51.476;7.210;2023-02-13T07:00:59;102299.00;;;10.20
11424;BMP180;5768;51.476;7.210;2023-02-13T07:06:02;102288.00;;;10.20
11424;BMP180;5768;51.476;7.210;2023-02-13T07:11:15;102292.00;;;10.10
11424;BMP180;5768;51.476;7.210;2023-02-13T07:16:18;102296.00;;;10.10
11424;BMP180;5768;51.476;7.210;2023-02-13T07:21:20;102303.00;;;10.20
11424;BMP180;5768;51.476;7.210;2023-02-13T07:26:23;102300.00;;;10.20
11424;BMP180;5768;51.476;7.210;2023-02-13T07:31:26;102304.00;;;10.30
11424;BMP180;5768;51.476;7.210;2023-02-13T07:36:28;102306.00;;;10.30
11424;BMP180;5768;51.476;7.210;2023-02-13T07:41:32;102304.00;;;10.30
11424;BMP180;5768;51.476;7.210;2023-02-13T07:46:34;102312.00;;;10.30
11424;BMP180;5768;51.476;7.210;2023-02-13T07:51:36;102312.00;;;10.40
11424;BMP180;5768;51.476;7.210;2023-02-13T07:56:39;102328.00;;;10.50
11424;BMP180;5768;51.476;7.210;2023-02-13T08:01:42;102323.00;;;10.60
11424;BMP180;5768;51.476;7.210;2023-02-13T08:06:44;102333.00;;;10.70
11424;BMP180;5768;51.476;7.210;2023-02-13T08:11:47;102324.00;;;10.90
11424;BMP180;5768;51.476;7.210;2023-02-13T08:16:57;102334.00;;;11.00
11424;BMP180;5768;51.476;7.210;2023-02-13T08:21:59;102341.00;;;11.10
11424;BMP180;5768;51.476;7.210;2023-02-13T08:27:03;102335.00;;;11.20
11424;BMP180;5768;51.476;7.210;2023-02-13T08:32:07;102335.00;;;11.30
11424;BMP180;5768;51.476;7.210;2023-02-13T08:37:09;102337.00;;;11.50
11424;BMP180;5768;51.476;7.210;2023-02-13T08:42:12;102336.00;;;11.60
11424;BMP180;5768;51.476;7.210;2023-02-13T08:47:14;102335.00;;;11.70
11424;BMP180;5768;51.476;7.210;2023-02-13T08:52:16;102320.00;;;11.80
11424;BMP180;5768;51.476;7.210;2023-02-13T08:57:19;102334.00;;;11.90
11424;BMP180;5768;51.476;7.210;2023-02-13T09:02:21;102328.00;;;12.00
11424;BMP180;5768;51.476;7.210;2023-02-13T09:07:23;102339.00;;;12.10
11424;BMP180;5768;51.476;7.210;2023-02-13T09:12:27;102334.00;;;12.20
11424;BMP180;5768;51.476;7.210;2023-02-13T09:17:29;102328.00;;;12.30
11424;BMP180;5768;51.476;7.210;2023-02-13T09:22:31;102332.00;;;12.50
11424;BMP180;5768;51.476;7.210;2023-02-13T09:27:35;102330.00;;;12.60
11424;BMP180;5768;51.476;7.210;2023-02-13T09:32:40;102340.00;;;12.70
11424;BMP180;5768;51.476;7.210;2023-02-13T09:37:42;102328.00;;;12.80
11424;BMP180;5768;51.476;7.210;2023-02-13T09:42:49;102331.00;;;12.90
11424;BMP180;5768;51.476;7.210;2023-02-13T09:47:53;102329.00;;;13.00
11424;BMP180;5768;51.476;7.210;2023-02-13T09:52:57;102338.00;;;13.10
11424;BMP180;5768;51.476;7.210;2023-02-13T09:58:11;102334.00;;;13.10
11424;BMP180;5768;51.476;7.210;2023-02-13T10:03:27;102349.00;;;13.30
11424;BMP180;5768;51.476;7.210;2023-02-13T10:08:58;102348.00;;;13.40
11424;BMP180;5768;51.476;7.210;2023-02-13T10:14:15;102334.00;;;13.40
11424;BMP180;5768;51.476;7.210;2023-02-13T10:19:33;102342.00;;;13.50
11424;BMP180;5768;51.476;7.210;2023-02-13T10:24:41;102352.00;;;13.60
11424;BMP180;5768;51.476;7.210;2023-02-13T10:29:54;102341.00;;;13.70
11424;BMP180;5768;51.476;7.210;2023-02-13T10:35:20;102350.00;;;13.70
11424;BMP180;5768;51.476;7.210;2023-02-13T10:40:32;102348.00;;;13.80
11424;BMP180;5768;51.476;7.210;2023-02-13T10:46:01;102335.00;;;13.90
11424;BMP180;5768;51.476;7.210;2023-02-13T10:51:14;102339.00;;;14.00
11424;BMP180;5768;51.476;7.210;2023-02-13T10:56:26;102332.00;;;14.10
11424;BMP180;5768;51.476;7.210;2023-02-13T11:01:40;102329.00;;;14.20
11424;BMP180;5768;51.476;7.210;2023-02-13T11:06:54;102327.00;;;14.30
11424;BMP180;5768;51.476;7.210;2023-02-13T11:11:57;102314.00;;;14.40
11424;BMP180;5768;51.476;7.210;2023-02-13T11:17:04;102309.00;;;14.60
11424;BMP180;5768;51.476;7.210;2023-02-13T11:22:12;102309.00;;;14.70
11424;BMP180;5768;51.476;7.210;2023-02-13T11:27:15;102295.00;;;14.90
11424;BMP180;5768;51.476;7.210;2023-02-13T11:32:21;102295.00;;;15.10
11424;BMP180;5768;51.476;7.210;2023-02-13T11:37:27;102292.00;;;15.30
11424;BMP180;5768;51.476;7.210;2023-02-13T11:42:33;102293.00;;;15.50
11424;BMP180;5768;51.476;7.210;2023-02-13T11:47:39;102284.00;;;15.60
11424;BMP180;5768;51.476;7.210;2023-02-13T11:52:56;102284.00;;;15.80
11424;BMP180;5768;51.476;7.210;2023-02-13T11:58:02;102289.00;;;16.20
11424;BMP180;5768;51.476;7.210;2023-02-13T12:03:27;102277.00;;;16.50
11424;BMP180;5768;51.476;7.210;2023-02-13T12:08:33;102274.00;;;16.80
11424;BMP180;5768;51.476;7.210;2023-02-13T12:13:37;102269.00;;;17.00
11424;BMP180;5768;51.476;7.210;2023-02-13T12:18:45;102270.00;;;17.30
11424;BMP180;5768;51.476;7.210;2023-02-13T12:24:00;102259.00;;;17.60
11424;BMP180;5768;51.476;7.210;2023-02-13T12:29:31;102255.00;;;17.90
11424;BMP180;5768;51.476;7.210;2023-02-13T12:35:13;102249.00;;;18.20
11424;BMP180;5768;51.476;7.210;2023-02-13T12:40:50;102240.00;;;18.40
11424;BMP180;5768;51.476;7.210;2023-02-13T12:46:05;102230.00;;;18.70
11424;BMP180;5768;51.476;7.210;2023-02-13T12:51:27;102230.00;;;19.00
11424;BMP180;5768;51.476;7.210;2023-02-13T12:56:57;102225.00;;;19.40
11424;BMP180;5768;51.476;7.210;2023-02-13T13:02:26;102222.00;;;20.00
11424;BMP180;5768;51.476;7.210;2023-02-13T13:07:52;102223.00;;;20.80
11424;BMP180;5768;51.476;7.210;2023-02-13T13:13:11;102214.00;;;21.60
11424;BMP180;5768;51.476;7.210;2023-02-13T13:18:29;102214.00;;;22.40
11424;BMP180;5768;51.476;7.210;2023-02-13T13:23:40;102211.00;;;23.20
11424;BMP180;5768;51.476;7.210;2023-02-13T13:28:48;102213.00;;;24.10
11424;BMP180;5768;51.476;7.210;2023-02-13T13:33:56;102210.00;;;24.70
11424;BMP180;5768;51.476;7.210;2023-02-13T13:39:18;102208.00;;;25.40
11424;BMP180;5768;51.476;7.210;2023-02-13T13:44:52;102204.00;;;25.80
11424;BMP180;5768;51.476;7.210;2023-02-13T13:49:57;102196.00;;;26.40
11424;BMP180;5768;51.476;7.210;2023-02-13T13:55:01;102204.00;;;27.20
11424;BMP180;5768;51.476;7.210;2023-02-13T14:00:27;102202.00;;;27.70
11424;BMP180;5768;51.476;7.210;2023-02-13T14:05:31;102199.00;;;28.10
11424;BMP180;5768;51.476;7.210;2023-02-13T14:11:24;102196.00;;;28.60
11424;BMP180;5768;51.476;7.210;2023-02-13T14:16:40;102188.00;;;28.90
11424;BMP180;5768;51.476;7.210;2023-02-13T14:21:42;102186.00;;;29.60
11424;BMP180;5768;51.476;7.210;2023-02-13T14:26:53;102183.00;;;29.80
11424;BMP180;5768;51.476;7.210;2023-02-13T14:32:14;102190.00;;;29.80
11424;BMP180;5768;51.476;7.210;2023-02-13T14:37:22;102183.00;;;30.20
11424;BMP180;5768;51.476;7.210;2023-02-13T14:42:38;102177.00;;;30.90
11424;BMP180;5768;51.476;7.210;2023-02-13T14:47:44;102189.00;;;31.60
11424;BMP180;5768;51.476;7.210;2023-02-13T14:52:51;102185.00;;;32.00
11424;BMP180;5768;51.476;7.210;2023-02-13T14:58:03;102171.00;;;32.40
11424;BMP180;5768;51.476;7.210;2023-02-13T15:03:23;102182.00;;;32.40
11424;BMP180;5768;51.476;7.210;2023-02-13T15:08:31;102179.00;;;32.40
11424;BMP180;5768;51.476;7.210;2023-02-13T15:13:36;102177.00;;;32.50
11424;BMP180;5768;51.476;7.210;2023-02-13T15:18:42;102177.00;;;32.50
11424;BMP180;5768;51.476;7.210;2023-02-13T15:23:49;102177.00;;;32.50
11424;BMP180;5768;51.476;7.210;2023-02-13T15:29:02;102177.00;;;32.50
11424;BMP180;5768;51.476;7.210;2023-02-13T15:34:26;102170.00;;;32.30
11424;BMP180;5768;51.476;7.210;2023-02-13T15:39:30;102161.00;;;32.10
11424;BMP180;5768;51.476;7.210;2023-02-13T15:44:36;102164.00;;;31.90
11424;BMP180;5768;51.476;7.210;2023-02-13T15:49:44;102165.00;;;31.50
11424;BMP180;5768;51.476;7.210;2023-02-13T15:54:50;102167.00;;;31.20
11424;BMP180;5768;51.476;7.210;2023-02-13T15:59:55;102167.00;;;30.70
11424;BMP180;5768;51.476;7.210;2023-02-13T16:05:01;102166.00;;;30.00
11424;BMP180;5768;51.476;7.210;2023-02-13T16:10:14;102167.00;;;28.50
11424;BMP180;5768;51.476;7.210;2023-02-13T16:15:20;102159.00;;;26.70
11424;BMP180;5768;51.476;7.210;2023-02-13T16:20:27;102160.00;;;24.60
11424;BMP180;5768;51.476;7.210;2023-02-13T16:25:33;102149.00;;;22.90
11424;BMP180;5768;51.476;7.210;2023-02-13T16:30:40;102140.00;;;21.70
11424;BMP180;5768;51.476;7.210;2023-02-13T16:35:44;102137.00;;;20.80
11424;BMP180;5768;51.476;7.210;2023-02-13T16:40:48;102147.00;;;20.10
11424;BMP180;5768;51.476;7.210;2023-02-13T16:45:51;102140.00;;;19.60
11424;BMP180;5768;51.476;7.210;2023-02-13T16:50:54;102147.00;;;19.00
11424;BMP180;5768;51.476;7.210;2023-02-13T16:55:58;102142.00;;;18.50
11424;BMP180;5768;51.476;7.210;2023-02-13T17:01:04;102143.00;;;18.00
11424;BMP180;5768;51.476;7.210;2023-02-13T17:06:09;102154.00;;;17.60
11424;BMP180;5768;51.476;7.210;2023-02-13T17:11:17;102164.00;;;17.30
11424;BMP180;5768;51.476;7.210;2023-02-13T17:16:21;102160.00;;;17.10
11424;BMP180;5768;51.476;7.210;2023-02-13T17:21:23;102159.00;;;16.80
11424;BMP180;5768;51.476;7.210;2023-02-13T17:26:25;102161.00;;;16.50
11424;BMP180;5768;51.476;7.210;2023-02-13T17:31:28;102163.00;;;16.30
11424;BMP180;5768;51.476;7.210;2023-02-13T17:36:31;102159.00;;;16.00
11424;BMP180;5768;51.476;7.210;2023-02-13T17:41:33;102164.00;;;15.80
11424;BMP180;5768;51.476;7.210;2023-02-13T17:46:39;102159.00;;;15.50
11424;BMP180;5768;51.476;7.210;2023-02-13T17:51:41;102166.00;;;15.30
11424;BMP180;5768;51.476;7.210;2023-02-13T17:56:44;102164.00;;;15.20
11424;BMP180;5768;51.476;7.210;2023-02-13T18:01:47;102165.00;;;15.00
11424;BMP180;5768;51.476;7.210;2023-02-13T18:06:53;102160.00;;;14.80
11424;BMP180;5768;51.476;7.210;2023-02-13T18:11:56;102157.00;;;14.60
11424;BMP180;5768;51.476;7.210;2023-02-13T18:17:00;102149.00;;;14.40
11424;BMP180;5768;51.476;7.210;2023-02-13T18:22:03;102161.00;;;14.30
11424;BMP180;5768;51.476;7.210;2023-02-13T18:27:06;102166.00;;;14.10
11424;BMP180;5768;51.476;7.210;2023-02-13T18:32:10;102156.00;;;13.90
11424;BMP180;5768;51.476;7.210;2023-02-13T18:37:12;102149.00;;;13.80
11424;BMP180;5768;51.476;7.210;2023-02-13T18:42:14;102147.00;;;13.70
11424;BMP180;5768;51.476;7.210;2023-02-13T18:47:19;102155.00;;;13.50
11424;BMP180;5768;51.476;7.210;2023-02-13T18:52:22;102150.00;;;13.40
11424;BMP180;5768;51.476;7.210;2023-02-13T18:57:24;102153.00;;;13.30
11424;BMP180;5768;51.476;7.210;2023-02-13T19:02:27;102143.00;;;13.20
11424;BMP180;5768;51.476;7.210;2023-02-13T19:07:30;102149.00;;;13.00
11424;BMP180;5768;51.476;7.210;2023-02-13T19:12:32;102149.00;;;12.90
11424;BMP180;5768;51.476;7.210;2023-02-13T19:17:37;102154.00;;;12.80
11424;BMP180;5768;51.476;7.210;2023-02-13T19:22:39;102154.00;;;12.70
11424;BMP180;5768;51.476;7.210;2023-02-13T19:27:41;102146.00;;;12.60
11424;BMP180;5768;51.476;7.210;2023-02-13T19:32:45;102153.00;;;12.50
11424;BMP180;5768;51.476;7.210;2023-02-13T19:37:47;102150.00;;;12.40
11424;BMP180;5768;51.476;7.210;2023-02-13T19:42:49;102145.00;;;12.30
11424;BMP180;5768;51.476;7.210;2023-02-13T19:47:52;102150.00;;;12.20
11424;BMP180;5768;51.476;7.210;2023-02-13T19:52:55;102147.00;;;12.10
11424;BMP180;5768;51.476;7.210;2023-02-13T19:57:58;102144.00;;;12.00
11424;BMP180;5768;51.476;7.210;2023-02-13T20:03:03;102151.00;;;11.90
11424;BMP180;5768;51.476;7.210;2023-02-13T20:08:05;102148.00;;;11.90
11424;BMP180;5768;51.476;7.210;2023-02-13T20:13:07;102138.00;;;11.80
11424;BMP180;5768;51.476;7.210;2023-02-13T20:18:11;102150.00;;;11.70
11424;BMP180;5768;51.476;7.210;2023-02-13T20:23:13;102144.00;;;11.60
11424;BMP180;5768;51.476;7.210;2023-02-13T20:28:16;102142.00;;;11.50
11424;BMP180;5768;51.476;7.210;2023-02-13T20:33:20;102137.00;;;11.50
11424;BMP180;5768;51.476;7.210;2023-02-13T20:38:22;102141.00;;;11.40
11424;BMP180;5768;51.476;7.210;2023-02-13T20:43:25;102130.00;;;11.30
11424;BMP180;5768;51.476;7.210;2023-02-13T20:48:28;102129.00;;;11.20
11424;BMP180;5768;51.476;7.210;2023-02-13T20:53:31;102120.00;;;11.10
11424;BMP180;5768;51.476;7.210;2023-02-13T20:58:33;102113.00;;;11.00
11424;BMP180;5768;51.476;7.210;2023-02-13T21:03:41;102113.00;;;11.00
11424;BMP180;5768;51.476;7.210;2023-02-13T21:08:43;102110.00;;;10.90
11424;BMP180;5768;51.476;7.210;2023-02-13T21:13:45;102107.00;;;10.90
11424;BMP180;5768;51.476;7.210;2023-02-13T21:18:52;102121.00;;;10.90
11424;BMP180;5768;51.476;7.210;2023-02-13T21:24:04;102127.00;;;11.00
11424;BMP180;5768;51.476;7.210;2023-02-13T21:29:07;102136.00;;;11.00
11424;BMP180;5768;51.476;7.210;2023-02-13T21:34:11;102140.00;;;11.10
11424;BMP180;5768;51.476;7.210;2023-02-13T21:39:14;102131.00;;;11.10
11424;BMP180;5768;51.476;7.210;2023-02-13T21:44:16;102129.00;;;11.10
11424;BMP180;5768;51.476;7.210;2023-02-13T21:49:19;102127.00;;;11.10
11424;BMP180;5768;51.476;7.210;2023-02-13T21:54:22;102119.00;;;11.10
11424;BMP180;5768;51.476;7.210;2023-02-13T21:59:24;102113.00;;;11.10
11424;BMP180;5768;51.476;7.210;2023-02-13T22:04:27;102111.00;;;11.10
11424;BMP180;5768;51.476;7.210;2023-02-13T22:09:30;102122.00;;;11.10
11424;BMP180;5768;51.476;7.210;2023-02-13T22:14:32;102107.00;;;11.10
11424;BMP180;5768;51.476;7.210;2023-02-13T22:19:35;102118.00;;;11.00
11424;BMP180;5768;51.476;7.210;2023-02-13T22:24:41;102117.00;;;11.00
11424;BMP180;5768;51.476;7.210;2023-02-13T22:29:43;102117.00;;;11.00
11424;BMP180;5768;51.476;7.210;2023-02-13T22:34:47;102113.00;;;10.90
11424;BMP180;5768;51.476;7.210;2023-02-13T22:39:49;102118.00;;;10.90
11424;BMP180;5768;51.476;7.210;2023-02-13T22:44:52;102128.00;;;10.80
11424;BMP180;5768;51.476;7.210;2023-02-13T22:49:55;102132.00;;;10.70
11424;BMP180;5768;51.476;7.210;2023-02-13T22:54:57;102121.00;;;10.70
11424;BMP180;5768;51.476;7.210;2023-02-13T23:00:00;102120.00;;;10.60
11424;BMP180;5768;51.476;7.210;2023-02-13T23:05:04;102122.00;;;10.60
11424;BMP180;5768;51.476;7.210;2023-02-13T23:10:08;102120.00;;;10.50
11424;BMP180;5768;51.476;7.210;2023-02-13T23:15:12;102120.00;;;10.50
11424;BMP180;5768;51.476;7.210;2023-02-13T23:20:18;102127.00;;;10.50
11424;BMP180;5768;51.476;7.210;2023-02-13T23:25:22;102112.00;;;10.50
11424;BMP180;5768;51.476;7.210;2023-02-13T23:30:25;102111.00;;;10.50
11424;BMP180;5768;51.476;7.210;2023-02-13T23:35:29;102122.00;;;10.40
11424;BMP180;5768;51.476;7.210;2023-02-13T23:40:31;102117.00;;;10.40
11424;BMP180;5768;51.476;7.210;2023-02-13T23:45:33;102109.00;;;10.40
11424;BMP180;5768;51.476;7.210;2023-02-13T23:50:40;102105.00;;;10.40
11424;BMP180;5768;51.476;7.210;2023-02-13T23:55:42;102116.00;;;10.40
